sensor_id;sensor_type;location;lat;lon;timestamp;P1;durP1;ratioP1;P2;durP2;ratioP2
6947;SDS011;3513;47.664;9.162;2022-08-19T00:01:24;14.00;;;10.70;;
6947;SDS011;3513;47.664;9.162;2022-08-19T00:03:50;19.13;;;10.93;;
6947;SDS011;3513;47.664;9.162;2022-08-19T00:06:16;11.35;;;10.15;;
6947;SDS011;3513;47.664;9.162;2022-08-19T00:08:42;13.23;;;9.97;;
6947;SDS011;3513;47.664;9.162;2022-08-19T00:11:08;14.30;;;9.00;;
6947;SDS011;3513;47.664;9.162;2022-08-19T00:13:34;22.97;;;9.17;;
6947;SDS011;3513;47.664;9.162;2022-08-19T00:16:00;8.73;;;7.93;;
6947;SDS011;3513;47.664;9.162;2022-08-19T00:18:26;9.63;;;8.63;;
6947;SDS011;3513;47.664;9.162;2022-08-19T00:20:52;9.40;;;8.40;;
6947;SDS011;3513;47.664;9.162;2022-08-19T00:23:18;17.33;;;9.63;;
6947;SDS011;3513;47.664;9.162;2022-08-19T00:25:44;10.70;;;8.50;;
6947;SDS011;3513;47.664;9.162;2022-08-19T00:28:10;11.13;;;8.73;;
6947;SDS011;3513;47.664;9.162;2022-08-19T00:30:35;11.87;;;9.10;;
6947;SDS011;3513;47.664;9.162;2022-08-19T00:33:01;13.43;;;9.70;;
6947;SDS011;3513;47.664;9.162;2022-08-19T00:35:28;9.20;;;8.30;;
6947;SDS011;3513;47.664;9.162;2022-08-19T00:37:54;11.63;;;9.80;;
6947;SDS011;3513;47.664;9.162;2022-08-19T00:40:19;13.00;;;9.40;;
6947;SDS011;3513;47.664;9.162;2022-08-19T00:42:45;12.80;;;11.27;;
6947;SDS011;3513;47.664;9.162;2022-08-19T00:45:16;18.57;;;11.23;;
6947;SDS011;3513;47.664;9.162;2022-08-19T00:47:49;11.53;;;10.07;;
6947;SDS011;3513;47.664;9.162;2022-08-19T00:50:15;16.77;;;10.03;;
6947;SDS011;3513;47.664;9.162;2022-08-19T00:52:44;12.10;;;10.47;;
6947;SDS011;3513;47.664;9.162;2022-08-19T00:55:14;14.13;;;10.00;;
6947;SDS011;3513;47.664;9.162;2022-08-19T00:57:44;14.30;;;10.63;;
6947;SDS011;3513;47.664;9.162;2022-08-19T01:00:19;13.70;;;10.37;;
6947;SDS011;3513;47.664;9.162;2022-08-19T01:02:46;10.90;;;9.33;;
6947;SDS011;3513;47.664;9.162;2022-08-19T01:05:14;10.87;;;9.77;;
6947;SDS011;3513;47.664;9.162;2022-08-19T01:07:43;10.10;;;9.00;;
6947;SDS011;3513;47.664;9.162;2022-08-19T01:10:16;12.53;;;10.30;;
6947;SDS011;3513;47.664;9.162;2022-08-19T01:12:48;12.07;;;10.17;;
6947;SDS011;3513;47.664;9.162;2022-08-19T01:15:17;11.07;;;9.67;;
6947;SDS011;3513;47.664;9.162;2022-08-19T01:17:46;12.07;;;10.70;;
6947;SDS011;3513;47.664;9.162;2022-08-19T01:20:14;17.03;;;11.20;;
6947;SDS011;3513;47.664;9.162;2022-08-19T01:22:46;13.67;;;10.70;;
6947;SDS011;3513;47.664;9.162;2022-08-19T01:25:15;16.03;;;13.30;;
6947;SDS011;3513;47.664;9.162;2022-08-19T01:27:43;18.00;;;13.60;;
6947;SDS011;3513;47.664;9.162;2022-08-19T01:30:13;18.97;;;13.43;;
6947;SDS011;3513;47.664;9.162;2022-08-19T01:32:42;16.13;;;13.63;;
6947;SDS011;3513;47.664;9.162;2022-08-19T01:35:09;13.97;;;12.53;;
6947;SDS011;3513;47.664;9.162;2022-08-19T01:37:47;14.23;;;12.73;;
6947;SDS011;3513;47.664;9.162;2022-08-19T01:40:16;15.47;;;12.70;;
6947;SDS011;3513;47.664;9.162;2022-08-19T01:42:44;17.73;;;13.40;;
6947;SDS011;3513;47.664;9.162;2022-08-19T01:45:09;17.90;;;13.43;;
6947;SDS011;3513;47.664;9.162;2022-08-19T01:47:36;17.40;;;14.80;;
6947;SDS011;3513;47.664;9.162;2022-08-19T01:50:02;21.13;;;16.40;;
6947;SDS011;3513;47.664;9.162;2022-08-19T01:52:29;28.70;;;18.90;;
6947;SDS011;3513;47.664;9.162;2022-08-19T01:54:55;28.40;;;19.97;;
6947;SDS011;3513;47.664;9.162;2022-08-19T01:57:21;26.10;;;19.20;;
6947;SDS011;3513;47.664;9.162;2022-08-19T01:59:46;29.20;;;20.83;;
6947;SDS011;3513;47.664;9.162;2022-08-19T02:02:12;30.57;;;20.90;;
6947;SDS011;3513;47.664;9.162;2022-08-19T02:04:38;28.20;;;20.57;;
6947;SDS011;3513;47.664;9.162;2022-08-19T02:07:04;29.43;;;21.43;;
6947;SDS011;3513;47.664;9.162;2022-08-19T02:09:31;29.53;;;20.63;;
6947;SDS011;3513;47.664;9.162;2022-08-19T02:11:57;26.03;;;20.50;;
6947;SDS011;3513;47.664;9.162;2022-08-19T02:14:22;28.03;;;20.67;;
6947;SDS011;3513;47.664;9.162;2022-08-19T02:16:48;28.33;;;22.27;;
6947;SDS011;3513;47.664;9.162;2022-08-19T02:19:14;35.43;;;22.67;;
6947;SDS011;3513;47.664;9.162;2022-08-19T02:21:39;28.40;;;20.67;;
6947;SDS011;3513;47.664;9.162;2022-08-19T02:24:05;29.37;;;21.40;;
6947;SDS011;3513;47.664;9.162;2022-08-19T02:26:32;28.37;;;21.97;;
6947;SDS011;3513;47.664;9.162;2022-08-19T02:28:57;26.97;;;21.27;;
6947;SDS011;3513;47.664;9.162;2022-08-19T02:31:24;28.30;;;21.80;;
6947;SDS011;3513;47.664;9.162;2022-08-19T02:33:50;31.00;;;22.77;;
6947;SDS011;3513;47.664;9.162;2022-08-19T02:36:17;30.17;;;23.27;;
6947;SDS011;3513;47.664;9.162;2022-08-19T02:38:43;31.43;;;22.87;;
6947;SDS011;3513;47.664;9.162;2022-08-19T02:41:14;35.77;;;24.13;;
6947;SDS011;3513;47.664;9.162;2022-08-19T02:43:45;41.10;;;24.80;;
6947;SDS011;3513;47.664;9.162;2022-08-19T02:46:16;35.37;;;23.20;;
6947;SDS011;3513;47.664;9.162;2022-08-19T02:48:48;36.60;;;24.20;;
6947;SDS011;3513;47.664;9.162;2022-08-19T02:51:18;37.90;;;25.30;;
6947;SDS011;3513;47.664;9.162;2022-08-19T02:53:48;44.53;;;26.97;;
6947;SDS011;3513;47.664;9.162;2022-08-19T02:56:14;41.17;;;26.60;;
6947;SDS011;3513;47.664;9.162;2022-08-19T02:58:40;36.33;;;24.80;;
6947;SDS011;3513;47.664;9.162;2022-08-19T03:01:06;42.30;;;27.00;;
6947;SDS011;3513;47.664;9.162;2022-08-19T03:03:32;36.53;;;24.77;;
6947;SDS011;3513;47.664;9.162;2022-08-19T03:06:11;32.70;;;24.43;;
6947;SDS011;3513;47.664;9.162;2022-08-19T03:08:39;37.07;;;26.23;;
6947;SDS011;3513;47.664;9.162;2022-08-19T03:11:12;38.43;;;27.20;;
6947;SDS011;3513;47.664;9.162;2022-08-19T03:13:45;37.07;;;27.87;;
6947;SDS011;3513;47.664;9.162;2022-08-19T03:16:11;36.77;;;26.83;;
6947;SDS011;3513;47.664;9.162;2022-08-19T03:18:38;43.60;;;27.90;;
6947;SDS011;3513;47.664;9.162;2022-08-19T03:21:04;40.30;;;28.93;;
6947;SDS011;3513;47.664;9.162;2022-08-19T03:23:30;43.10;;;29.47;;
6947;SDS011;3513;47.664;9.162;2022-08-19T03:25:55;48.00;;;29.27;;
6947;SDS011;3513;47.664;9.162;2022-08-19T03:28:21;42.50;;;28.53;;
6947;SDS011;3513;47.664;9.162;2022-08-19T03:30:56;39.83;;;26.53;;
6947;SDS011;3513;47.664;9.162;2022-08-19T03:33:28;40.30;;;29.30;;
6947;SDS011;3513;47.664;9.162;2022-08-19T03:36:04;37.70;;;27.67;;
6947;SDS011;3513;47.664;9.162;2022-08-19T03:38:36;39.73;;;29.03;;
6947;SDS011;3513;47.664;9.162;2022-08-19T03:41:05;38.23;;;27.87;;
6947;SDS011;3513;47.664;9.162;2022-08-19T03:43:33;39.70;;;28.20;;
6947;SDS011;3513;47.664;9.162;2022-08-19T03:46:11;45.67;;;29.70;;
6947;SDS011;3513;47.664;9.162;2022-08-19T03:48:45;46.00;;;31.60;;
6947;SDS011;3513;47.664;9.162;2022-08-19T03:51:15;41.13;;;27.87;;
6947;SDS011;3513;47.664;9.162;2022-08-19T03:53:42;47.10;;;31.00;;
6947;SDS011;3513;47.664;9.162;2022-08-19T03:56:09;44.37;;;31.57;;
6947;SDS011;3513;47.664;9.162;2022-08-19T03:58:35;48.50;;;30.60;;
6947;SDS011;3513;47.664;9.162;2022-08-19T04:01:06;55.43;;;30.83;;
6947;SDS011;3513;47.664;9.162;2022-08-19T04:03:39;48.43;;;30.30;;
6947;SDS011;3513;47.664;9.162;2022-08-19T04:06:09;51.10;;;30.80;;
6947;SDS011;3513;47.664;9.162;2022-08-19T04:08:42;44.60;;;30.77;;
6947;SDS011;3513;47.664;9.162;2022-08-19T04:11:11;49.20;;;32.63;;
6947;SDS011;3513;47.664;9.162;2022-08-19T04:13:38;52.90;;;32.03;;
6947;SDS011;3513;47.664;9.162;2022-08-19T04:16:04;47.53;;;33.40;;
6947;SDS011;3513;47.664;9.162;2022-08-19T04:18:31;48.97;;;32.90;;
6947;SDS011;3513;47.664;9.162;2022-08-19T04:21:00;47.23;;;32.57;;
6947;SDS011;3513;47.664;9.162;2022-08-19T04:23:26;43.47;;;31.07;;
6947;SDS011;3513;47.664;9.162;2022-08-19T04:25:53;53.87;;;33.30;;
6947;SDS011;3513;47.664;9.162;2022-08-19T04:28:19;44.30;;;30.53;;
6947;SDS011;3513;47.664;9.162;2022-08-19T04:30:47;49.17;;;30.97;;
6947;SDS011;3513;47.664;9.162;2022-08-19T04:33:15;44.33;;;28.70;;
6947;SDS011;3513;47.664;9.162;2022-08-19T04:35:43;43.50;;;28.60;;
6947;SDS011;3513;47.664;9.162;2022-08-19T04:38:13;38.57;;;27.10;;
6947;SDS011;3513;47.664;9.162;2022-08-19T04:40:45;38.80;;;27.00;;
6947;SDS011;3513;47.664;9.162;2022-08-19T04:43:30;48.50;;;26.13;;
6947;SDS011;3513;47.664;9.162;2022-08-19T04:45:57;50.50;;;29.93;;
6947;SDS011;3513;47.664;9.162;2022-08-19T04:48:22;44.50;;;28.00;;
6947;SDS011;3513;47.664;9.162;2022-08-19T04:50:54;42.23;;;27.87;;
6947;SDS011;3513;47.664;9.162;2022-08-19T04:53:25;47.93;;;29.40;;
6947;SDS011;3513;47.664;9.162;2022-08-19T04:55:54;44.87;;;29.87;;
6947;SDS011;3513;47.664;9.162;2022-08-19T04:58:21;41.53;;;25.10;;
6947;SDS011;3513;47.664;9.162;2022-08-19T05:00:48;53.23;;;29.53;;
6947;SDS011;3513;47.664;9.162;2022-08-19T05:03:13;52.20;;;30.27;;
6947;SDS011;3513;47.664;9.162;2022-08-19T05:05:42;46.17;;;31.53;;
6947;SDS011;3513;47.664;9.162;2022-08-19T05:08:09;52.23;;;31.60;;
6947;SDS011;3513;47.664;9.162;2022-08-19T05:10:36;47.87;;;32.97;;
6947;SDS011;3513;47.664;9.162;2022-08-19T05:13:03;52.13;;;32.87;;
6947;SDS011;3513;47.664;9.162;2022-08-19T05:15:29;51.33;;;32.93;;
6947;SDS011;3513;47.664;9.162;2022-08-19T05:17:55;46.80;;;31.67;;
6947;SDS011;3513;47.664;9.162;2022-08-19T05:20:39;50.87;;;33.07;;
6947;SDS011;3513;47.664;9.162;2022-08-19T05:23:24;54.23;;;35.77;;
6947;SDS011;3513;47.664;9.162;2022-08-19T05:25:50;57.80;;;34.10;;
6947;SDS011;3513;47.664;9.162;2022-08-19T05:28:17;52.33;;;33.03;;
6947;SDS011;3513;47.664;9.162;2022-08-19T05:30:43;54.90;;;32.30;;
6947;SDS011;3513;47.664;9.162;2022-08-19T05:33:10;56.00;;;35.80;;
6947;SDS011;3513;47.664;9.162;2022-08-19T05:35:36;65.00;;;38.40;;
6947;SDS011;3513;47.664;9.162;2022-08-19T05:38:04;70.00;;;40.37;;
6947;SDS011;3513;47.664;9.162;2022-08-19T05:40:33;60.73;;;36.87;;
6947;SDS011;3513;47.664;9.162;2022-08-19T05:43:01;65.43;;;36.57;;
6947;SDS011;3513;47.664;9.162;2022-08-19T05:45:27;57.20;;;37.00;;
6947;SDS011;3513;47.664;9.162;2022-08-19T05:47:53;54.57;;;34.37;;
6947;SDS011;3513;47.664;9.162;2022-08-19T05:50:19;56.93;;;36.30;;
6947;SDS011;3513;47.664;9.162;2022-08-19T05:52:45;62.30;;;37.63;;
6947;SDS011;3513;47.664;9.162;2022-08-19T05:55:10;55.07;;;34.63;;
6947;SDS011;3513;47.664;9.162;2022-08-19T05:57:36;60.63;;;35.93;;
6947;SDS011;3513;47.664;9.162;2022-08-19T06:00:03;64.03;;;36.93;;
6947;SDS011;3513;47.664;9.162;2022-08-19T06:02:34;61.37;;;39.47;;
6947;SDS011;3513;47.664;9.162;2022-08-19T06:05:00;66.70;;;37.63;;
6947;SDS011;3513;47.664;9.162;2022-08-19T06:07:27;72.47;;;36.13;;
6947;SDS011;3513;47.664;9.162;2022-08-19T06:09:53;63.53;;;38.77;;
6947;SDS011;3513;47.664;9.162;2022-08-19T06:12:20;61.07;;;38.20;;
6947;SDS011;3513;47.664;9.162;2022-08-19T06:14:55;67.63;;;37.87;;
6947;SDS011;3513;47.664;9.162;2022-08-19T06:17:21;72.23;;;38.63;;
6947;SDS011;3513;47.664;9.162;2022-08-19T06:19:49;59.37;;;37.67;;
6947;SDS011;3513;47.664;9.162;2022-08-19T06:22:15;67.40;;;40.00;;
6947;SDS011;3513;47.664;9.162;2022-08-19T06:24:41;60.43;;;37.60;;
6947;SDS011;3513;47.664;9.162;2022-08-19T06:27:07;68.57;;;38.97;;
6947;SDS011;3513;47.664;9.162;2022-08-19T06:29:33;62.57;;;39.93;;
6947;SDS011;3513;47.664;9.162;2022-08-19T06:32:00;56.73;;;37.30;;
6947;SDS011;3513;47.664;9.162;2022-08-19T06:34:28;54.63;;;37.50;;
6947;SDS011;3513;47.664;9.162;2022-08-19T06:36:57;65.47;;;38.03;;
6947;SDS011;3513;47.664;9.162;2022-08-19T06:39:27;67.57;;;36.90;;
6947;SDS011;3513;47.664;9.162;2022-08-19T06:41:59;55.60;;;36.40;;
6947;SDS011;3513;47.664;9.162;2022-08-19T06:44:28;70.43;;;40.77;;
6947;SDS011;3513;47.664;9.162;2022-08-19T06:46:59;94.53;;;53.30;;
6947;SDS011;3513;47.664;9.162;2022-08-19T06:49:27;65.30;;;40.40;;
6947;SDS011;3513;47.664;9.162;2022-08-19T06:51:55;70.63;;;40.17;;
6947;SDS011;3513;47.664;9.162;2022-08-19T06:54:22;64.70;;;39.90;;
6947;SDS011;3513;47.664;9.162;2022-08-19T06:56:48;53.33;;;37.27;;
6947;SDS011;3513;47.664;9.162;2022-08-19T06:59:15;63.77;;;39.27;;
6947;SDS011;3513;47.664;9.162;2022-08-19T07:01:48;60.83;;;41.07;;
6947;SDS011;3513;47.664;9.162;2022-08-19T07:04:16;54.40;;;38.27;;
6947;SDS011;3513;47.664;9.162;2022-08-19T07:06:44;59.37;;;39.20;;
6947;SDS011;3513;47.664;9.162;2022-08-19T07:09:11;57.70;;;40.47;;
6947;SDS011;3513;47.664;9.162;2022-08-19T07:11:38;70.30;;;41.33;;
6947;SDS011;3513;47.664;9.162;2022-08-19T07:14:08;58.97;;;38.20;;
6947;SDS011;3513;47.664;9.162;2022-08-19T07:16:33;59.93;;;38.17;;
6947;SDS011;3513;47.664;9.162;2022-08-19T07:18:59;75.73;;;41.47;;
6947;SDS011;3513;47.664;9.162;2022-08-19T07:21:26;54.00;;;38.23;;
6947;SDS011;3513;47.664;9.162;2022-08-19T07:23:53;63.70;;;40.87;;
6947;SDS011;3513;47.664;9.162;2022-08-19T07:26:25;54.00;;;38.13;;
6947;SDS011;3513;47.664;9.162;2022-08-19T07:28:53;49.40;;;35.13;;
6947;SDS011;3513;47.664;9.162;2022-08-19T07:31:20;41.93;;;32.63;;
6947;SDS011;3513;47.664;9.162;2022-08-19T07:33:48;54.47;;;33.53;;
6947;SDS011;3513;47.664;9.162;2022-08-19T07:36:16;44.03;;;32.10;;
6947;SDS011;3513;47.664;9.162;2022-08-19T07:38:46;50.70;;;33.50;;
6947;SDS011;3513;47.664;9.162;2022-08-19T07:41:14;44.50;;;31.93;;
6947;SDS011;3513;47.664;9.162;2022-08-19T07:43:46;42.93;;;31.00;;
6947;SDS011;3513;47.664;9.162;2022-08-19T07:46:13;58.73;;;32.60;;
6947;SDS011;3513;47.664;9.162;2022-08-19T07:48:39;44.10;;;32.33;;
6947;SDS011;3513;47.664;9.162;2022-08-19T07:51:07;50.37;;;34.50;;
6947;SDS011;3513;47.664;9.162;2022-08-19T07:53:35;46.73;;;32.70;;
6947;SDS011;3513;47.664;9.162;2022-08-19T07:56:02;51.57;;;34.20;;
6947;SDS011;3513;47.664;9.162;2022-08-19T07:58:30;53.37;;;34.60;;
6947;SDS011;3513;47.664;9.162;2022-08-19T08:00:58;48.17;;;34.20;;
6947;SDS011;3513;47.664;9.162;2022-08-19T08:03:24;48.60;;;34.33;;
6947;SDS011;3513;47.664;9.162;2022-08-19T08:06:10;50.00;;;34.93;;
6947;SDS011;3513;47.664;9.162;2022-08-19T08:08:55;53.27;;;32.93;;
6947;SDS011;3513;47.664;9.162;2022-08-19T08:11:37;42.87;;;30.67;;
6947;SDS011;3513;47.664;9.162;2022-08-19T08:14:03;48.30;;;34.27;;
6947;SDS011;3513;47.664;9.162;2022-08-19T08:16:30;47.07;;;32.17;;
6947;SDS011;3513;47.664;9.162;2022-08-19T08:18:58;57.20;;;34.27;;
6947;SDS011;3513;47.664;9.162;2022-08-19T08:21:24;46.50;;;32.03;;
6947;SDS011;3513;47.664;9.162;2022-08-19T08:23:50;55.80;;;33.70;;
6947;SDS011;3513;47.664;9.162;2022-08-19T08:26:17;50.40;;;34.17;;
6947;SDS011;3513;47.664;9.162;2022-08-19T08:28:42;46.10;;;32.80;;
6947;SDS011;3513;47.664;9.162;2022-08-19T08:31:08;44.77;;;34.17;;
6947;SDS011;3513;47.664;9.162;2022-08-19T08:33:34;51.13;;;35.03;;
6947;SDS011;3513;47.664;9.162;2022-08-19T08:36:00;48.17;;;34.33;;
6947;SDS011;3513;47.664;9.162;2022-08-19T08:38:36;57.33;;;36.20;;
6947;SDS011;3513;47.664;9.162;2022-08-19T08:41:05;60.30;;;38.53;;
6947;SDS011;3513;47.664;9.162;2022-08-19T08:43:53;66.40;;;39.27;;
6947;SDS011;3513;47.664;9.162;2022-08-19T08:51:54;57.90;;;38.70;;
6947;SDS011;3513;47.664;9.162;2022-08-19T08:54:33;57.20;;;39.50;;
6947;SDS011;3513;47.664;9.162;2022-08-19T08:57:07;59.47;;;40.00;;
6947;SDS011;3513;47.664;9.162;2022-08-19T08:59:40;55.43;;;37.77;;
6947;SDS011;3513;47.664;9.162;2022-08-19T09:02:08;62.53;;;38.30;;
6947;SDS011;3513;47.664;9.162;2022-08-19T09:04:35;65.90;;;40.20;;
6947;SDS011;3513;47.664;9.162;2022-08-19T09:09:40;66.63;;;41.57;;
6947;SDS011;3513;47.664;9.162;2022-08-19T09:15:07;65.00;;;39.90;;
6947;SDS011;3513;47.664;9.162;2022-08-19T09:17:35;64.10;;;40.80;;
6947;SDS011;3513;47.664;9.162;2022-08-19T09:22:44;58.30;;;35.47;;
6947;SDS011;3513;47.664;9.162;2022-08-19T09:25:10;59.57;;;38.37;;
6947;SDS011;3513;47.664;9.162;2022-08-19T09:27:41;63.80;;;39.63;;
6947;SDS011;3513;47.664;9.162;2022-08-19T09:30:27;63.90;;;37.40;;
6947;SDS011;3513;47.664;9.162;2022-08-19T09:32:55;55.83;;;37.90;;
6947;SDS011;3513;47.664;9.162;2022-08-19T09:35:22;55.77;;;38.37;;
6947;SDS011;3513;47.664;9.162;2022-08-19T09:37:49;63.10;;;37.90;;
6947;SDS011;3513;47.664;9.162;2022-08-19T09:40:16;56.23;;;35.60;;
6947;SDS011;3513;47.664;9.162;2022-08-19T09:42:43;59.57;;;36.87;;
6947;SDS011;3513;47.664;9.162;2022-08-19T09:45:11;55.70;;;37.90;;
6947;SDS011;3513;47.664;9.162;2022-08-19T09:47:37;54.07;;;34.17;;
6947;SDS011;3513;47.664;9.162;2022-08-19T09:50:04;58.37;;;35.47;;
6947;SDS011;3513;47.664;9.162;2022-08-19T09:52:31;54.77;;;33.67;;
6947;SDS011;3513;47.664;9.162;2022-08-19T09:54:56;59.60;;;34.83;;
6947;SDS011;3513;47.664;9.162;2022-08-19T09:57:22;51.87;;;35.13;;
6947;SDS011;3513;47.664;9.162;2022-08-19T09:59:48;61.90;;;34.70;;
6947;SDS011;3513;47.664;9.162;2022-08-19T10:02:13;58.90;;;34.53;;
6947;SDS011;3513;47.664;9.162;2022-08-19T10:04:39;52.80;;;32.70;;
6947;SDS011;3513;47.664;9.162;2022-08-19T10:07:23;45.83;;;30.77;;
6947;SDS011;3513;47.664;9.162;2022-08-19T10:09:49;51.67;;;33.03;;
6947;SDS011;3513;47.664;9.162;2022-08-19T10:12:15;44.37;;;31.10;;
6947;SDS011;3513;47.664;9.162;2022-08-19T10:14:40;52.73;;;32.33;;
6947;SDS011;3513;47.664;9.162;2022-08-19T10:17:07;44.63;;;31.67;;
6947;SDS011;3513;47.664;9.162;2022-08-19T10:19:36;48.77;;;31.13;;
6947;SDS011;3513;47.664;9.162;2022-08-19T10:22:03;50.10;;;30.03;;
6947;SDS011;3513;47.664;9.162;2022-08-19T10:24:30;47.70;;;32.00;;
6947;SDS011;3513;47.664;9.162;2022-08-19T10:26:57;50.07;;;28.80;;
6947;SDS011;3513;47.664;9.162;2022-08-19T10:29:22;44.90;;;27.67;;
6947;SDS011;3513;47.664;9.162;2022-08-19T10:31:48;39.43;;;28.57;;
6947;SDS011;3513;47.664;9.162;2022-08-19T10:34:14;43.63;;;29.10;;
6947;SDS011;3513;47.664;9.162;2022-08-19T10:36:39;46.30;;;31.17;;
6947;SDS011;3513;47.664;9.162;2022-08-19T10:39:07;45.13;;;29.77;;
6947;SDS011;3513;47.664;9.162;2022-08-19T10:41:36;57.23;;;29.60;;
6947;SDS011;3513;47.664;9.162;2022-08-19T10:44:05;52.17;;;30.50;;
6947;SDS011;3513;47.664;9.162;2022-08-19T10:46:33;51.70;;;31.20;;
6947;SDS011;3513;47.664;9.162;2022-08-19T10:49:01;58.37;;;32.80;;
6947;SDS011;3513;47.664;9.162;2022-08-19T10:51:29;53.20;;;31.97;;
6947;SDS011;3513;47.664;9.162;2022-08-19T10:54:14;58.27;;;34.70;;
6947;SDS011;3513;47.664;9.162;2022-08-19T10:56:39;61.90;;;35.57;;
6947;SDS011;3513;47.664;9.162;2022-08-19T10:59:19;42.73;;;27.97;;
6947;SDS011;3513;47.664;9.162;2022-08-19T11:01:47;41.63;;;27.47;;
6947;SDS011;3513;47.664;9.162;2022-08-19T11:04:14;49.60;;;29.17;;
6947;SDS011;3513;47.664;9.162;2022-08-19T11:06:43;43.30;;;27.80;;
6947;SDS011;3513;47.664;9.162;2022-08-19T11:09:12;47.17;;;29.67;;
6947;SDS011;3513;47.664;9.162;2022-08-19T11:11:42;44.90;;;28.70;;
6947;SDS011;3513;47.664;9.162;2022-08-19T11:14:08;48.90;;;29.50;;
6947;SDS011;3513;47.664;9.162;2022-08-19T11:16:36;41.53;;;26.17;;
6947;SDS011;3513;47.664;9.162;2022-08-19T11:19:03;44.37;;;28.53;;
6947;SDS011;3513;47.664;9.162;2022-08-19T11:21:30;59.17;;;32.13;;
6947;SDS011;3513;47.664;9.162;2022-08-19T11:23:59;51.70;;;32.83;;
6947;SDS011;3513;47.664;9.162;2022-08-19T11:26:27;72.07;;;37.27;;
6947;SDS011;3513;47.664;9.162;2022-08-19T11:28:54;70.40;;;41.00;;
6947;SDS011;3513;47.664;9.162;2022-08-19T11:31:22;72.13;;;41.77;;
6947;SDS011;3513;47.664;9.162;2022-08-19T11:33:50;92.03;;;42.47;;
6947;SDS011;3513;47.664;9.162;2022-08-19T11:36:18;72.40;;;42.47;;
6947;SDS011;3513;47.664;9.162;2022-08-19T11:38:46;72.30;;;44.17;;
6947;SDS011;3513;47.664;9.162;2022-08-19T11:41:16;71.67;;;39.17;;
6947;SDS011;3513;47.664;9.162;2022-08-19T11:43:43;64.60;;;37.57;;
6947;SDS011;3513;47.664;9.162;2022-08-19T11:46:10;58.93;;;38.47;;
6947;SDS011;3513;47.664;9.162;2022-08-19T11:48:37;63.40;;;39.60;;
6947;SDS011;3513;47.664;9.162;2022-08-19T11:51:07;62.57;;;39.47;;
6947;SDS011;3513;47.664;9.162;2022-08-19T11:53:35;67.83;;;39.60;;
6947;SDS011;3513;47.664;9.162;2022-08-19T11:56:02;71.60;;;41.00;;
6947;SDS011;3513;47.664;9.162;2022-08-19T11:58:29;70.93;;;45.27;;
6947;SDS011;3513;47.664;9.162;2022-08-19T12:00:55;72.20;;;43.77;;
6947;SDS011;3513;47.664;9.162;2022-08-19T12:03:21;67.67;;;42.30;;
6947;SDS011;3513;47.664;9.162;2022-08-19T12:05:47;61.63;;;40.40;;
6947;SDS011;3513;47.664;9.162;2022-08-19T12:08:14;61.67;;;40.13;;
6947;SDS011;3513;47.664;9.162;2022-08-19T12:10:40;58.87;;;37.60;;
6947;SDS011;3513;47.664;9.162;2022-08-19T12:13:07;63.20;;;39.30;;
6947;SDS011;3513;47.664;9.162;2022-08-19T12:15:37;52.13;;;36.40;;
6947;SDS011;3513;47.664;9.162;2022-08-19T12:18:05;52.77;;;33.57;;
6947;SDS011;3513;47.664;9.162;2022-08-19T12:20:34;52.17;;;36.10;;
6947;SDS011;3513;47.664;9.162;2022-08-19T12:23:01;57.13;;;35.90;;
6947;SDS011;3513;47.664;9.162;2022-08-19T12:25:28;51.53;;;34.80;;
6947;SDS011;3513;47.664;9.162;2022-08-19T12:27:53;47.30;;;34.40;;
6947;SDS011;3513;47.664;9.162;2022-08-19T12:30:20;52.53;;;36.77;;
6947;SDS011;3513;47.664;9.162;2022-08-19T12:32:46;48.30;;;33.57;;
6947;SDS011;3513;47.664;9.162;2022-08-19T12:35:11;51.03;;;35.00;;
6947;SDS011;3513;47.664;9.162;2022-08-19T12:37:37;48.83;;;36.07;;
6947;SDS011;3513;47.664;9.162;2022-08-19T12:40:04;51.33;;;33.57;;
6947;SDS011;3513;47.664;9.162;2022-08-19T12:42:30;50.93;;;37.00;;
6947;SDS011;3513;47.664;9.162;2022-08-19T12:44:56;46.90;;;33.27;;
6947;SDS011;3513;47.664;9.162;2022-08-19T12:47:22;49.80;;;35.77;;
6947;SDS011;3513;47.664;9.162;2022-08-19T12:49:48;51.63;;;34.87;;
6947;SDS011;3513;47.664;9.162;2022-08-19T12:52:14;54.23;;;37.13;;
6947;SDS011;3513;47.664;9.162;2022-08-19T12:54:40;52.43;;;36.63;;
6947;SDS011;3513;47.664;9.162;2022-08-19T12:57:08;54.77;;;36.17;;
6947;SDS011;3513;47.664;9.162;2022-08-19T12:59:35;45.80;;;34.30;;
6947;SDS011;3513;47.664;9.162;2022-08-19T13:02:02;55.10;;;36.00;;
6947;SDS011;3513;47.664;9.162;2022-08-19T13:04:30;47.13;;;32.67;;
6947;SDS011;3513;47.664;9.162;2022-08-19T13:06:55;46.90;;;34.00;;
6947;SDS011;3513;47.664;9.162;2022-08-19T13:09:22;49.93;;;37.37;;
6947;SDS011;3513;47.664;9.162;2022-08-19T13:11:48;47.67;;;34.50;;
6947;SDS011;3513;47.664;9.162;2022-08-19T13:14:14;51.40;;;33.30;;
6947;SDS011;3513;47.664;9.162;2022-08-19T13:16:39;45.90;;;33.60;;
6947;SDS011;3513;47.664;9.162;2022-08-19T13:19:06;43.30;;;31.80;;
6947;SDS011;3513;47.664;9.162;2022-08-19T13:21:32;48.63;;;33.67;;
6947;SDS011;3513;47.664;9.162;2022-08-19T13:23:58;46.33;;;35.10;;
6947;SDS011;3513;47.664;9.162;2022-08-19T13:26:23;47.00;;;34.20;;
6947;SDS011;3513;47.664;9.162;2022-08-19T13:28:50;53.50;;;36.73;;
6947;SDS011;3513;47.664;9.162;2022-08-19T13:31:34;51.43;;;34.70;;
6947;SDS011;3513;47.664;9.162;2022-08-19T13:34:25;49.17;;;35.27;;
6947;SDS011;3513;47.664;9.162;2022-08-19T13:37:01;51.87;;;37.37;;
6947;SDS011;3513;47.664;9.162;2022-08-19T13:39:28;46.90;;;34.53;;
6947;SDS011;3513;47.664;9.162;2022-08-19T13:41:55;48.80;;;37.50;;
6947;SDS011;3513;47.664;9.162;2022-08-19T13:44:20;49.07;;;36.60;;
6947;SDS011;3513;47.664;9.162;2022-08-19T13:46:47;50.50;;;37.40;;
6947;SDS011;3513;47.664;9.162;2022-08-19T13:49:17;49.70;;;36.50;;
6947;SDS011;3513;47.664;9.162;2022-08-19T13:51:43;50.80;;;36.03;;
6947;SDS011;3513;47.664;9.162;2022-08-19T13:54:10;46.90;;;34.47;;
6947;SDS011;3513;47.664;9.162;2022-08-19T13:56:39;44.50;;;35.53;;
6947;SDS011;3513;47.664;9.162;2022-08-19T13:59:06;51.20;;;35.90;;
6947;SDS011;3513;47.664;9.162;2022-08-19T14:01:32;47.27;;;35.63;;
6947;SDS011;3513;47.664;9.162;2022-08-19T14:03:58;50.93;;;38.10;;
6947;SDS011;3513;47.664;9.162;2022-08-19T14:06:24;44.80;;;33.87;;
6947;SDS011;3513;47.664;9.162;2022-08-19T14:08:50;53.97;;;36.97;;
6947;SDS011;3513;47.664;9.162;2022-08-19T14:11:17;51.37;;;37.10;;
6947;SDS011;3513;47.664;9.162;2022-08-19T14:13:43;48.27;;;37.50;;
6947;SDS011;3513;47.664;9.162;2022-08-19T14:16:09;54.23;;;38.97;;
6947;SDS011;3513;47.664;9.162;2022-08-19T14:18:37;51.20;;;37.23;;
6947;SDS011;3513;47.664;9.162;2022-08-19T14:21:03;55.93;;;40.00;;
6947;SDS011;3513;47.664;9.162;2022-08-19T14:23:30;51.43;;;40.07;;
6947;SDS011;3513;47.664;9.162;2022-08-19T14:26:03;61.47;;;42.37;;
6947;SDS011;3513;47.664;9.162;2022-08-19T14:28:32;58.60;;;41.43;;
6947;SDS011;3513;47.664;9.162;2022-08-19T14:30:58;60.90;;;42.33;;
6947;SDS011;3513;47.664;9.162;2022-08-19T14:33:24;59.57;;;39.87;;
6947;SDS011;3513;47.664;9.162;2022-08-19T14:35:49;56.10;;;41.43;;
6947;SDS011;3513;47.664;9.162;2022-08-19T14:38:16;58.00;;;42.47;;
6947;SDS011;3513;47.664;9.162;2022-08-19T14:40:43;56.27;;;42.87;;
6947;SDS011;3513;47.664;9.162;2022-08-19T14:43:10;65.87;;;43.20;;
6947;SDS011;3513;47.664;9.162;2022-08-19T14:45:37;58.97;;;41.27;;
6947;SDS011;3513;47.664;9.162;2022-08-19T14:48:05;61.47;;;38.77;;
6947;SDS011;3513;47.664;9.162;2022-08-19T14:50:32;64.17;;;46.53;;
6947;SDS011;3513;47.664;9.162;2022-08-19T14:53:06;59.10;;;41.47;;
6947;SDS011;3513;47.664;9.162;2022-08-19T14:55:33;63.40;;;43.37;;
6947;SDS011;3513;47.664;9.162;2022-08-19T14:58:02;58.27;;;42.07;;
6947;SDS011;3513;47.664;9.162;2022-08-19T15:00:28;59.07;;;44.47;;
6947;SDS011;3513;47.664;9.162;2022-08-19T15:02:53;64.83;;;42.87;;
6947;SDS011;3513;47.664;9.162;2022-08-19T15:05:20;67.47;;;43.70;;
6947;SDS011;3513;47.664;9.162;2022-08-19T15:07:46;57.57;;;41.87;;